< Typhoon 198209 1982 Season Typhoon 198211 >
Typhoon 198210 (BESS)
General InformationTrack Information on Google MapsDetailed Wind InformationList of All Images || NewsDisaster Info.ResourceGoogle EarthGE AnimationAtom FeedGeoJSON
Detalied Best Track (Time Zone = UTC)
Year Month Day Hour Lat. Long. Pressure (hPa) Wind (kt) Class Image Chart
1982 7 21 18 11.0 165.0 1004 0 2 Image Chart
1982 7 22 00 11.4 164.1 1004 0 2 Image Chart
1982 7 22 06 11.9 163.3 1004 0 2 Image Chart
1982 7 22 12 12.3 162.4 1004 0 2 Image Chart
1982 7 22 18 12.8 161.5 1002 0 2 Image Chart
1982 7 23 00 13.2 160.5 1000 0 2 Image Chart
1982 7 23 06 13.7 159.6 998 35 3 Image Chart
1982 7 23 12 14.3 158.6 996 35 3 Image Chart
1982 7 23 18 15.0 157.8 990 35 3 Image Chart
1982 7 24 00 15.6 156.9 985 50 4 Image Chart
1982 7 24 06 16.0 156.2 980 50 4 Image Chart
1982 7 24 12 16.3 155.5 975 60 4 Image Chart
1982 7 24 18 16.6 154.9 970 65 5 Image Chart
1982 7 25 00 16.7 154.0 965 70 5 Image Chart
1982 7 25 06 16.7 153.2 965 70 5 Image Chart
1982 7 25 12 16.7 152.5 960 80 5 Image Chart
1982 7 25 18 16.5 152.1 955 80 5 Image Chart
1982 7 26 00 16.2 151.8 955 80 5 Image Chart
1982 7 26 06 15.8 151.6 950 85 5 Image Chart
1982 7 26 12 15.8 151.7 950 90 5 Image Chart
1982 7 26 18 15.8 151.4 950 90 5 Image Chart
1982 7 27 00 15.2 151.1 950 90 5 Image Chart
1982 7 27 06 15.4 150.6 950 90 5 Image Chart
1982 7 27 12 15.4 150.1 950 90 5 Image Chart
1982 7 27 18 16.1 149.8 950 90 5 Image Chart
1982 7 28 00 17.3 149.2 950 90 5 Image Chart
1982 7 28 06 18.1 148.2 945 90 5 Image Chart
1982 7 28 12 18.8 146.8 935 100 5 Image Chart
1982 7 28 18 19.8 145.6 915 125 5 Image Chart
1982 7 29 00 20.3 144.4 900 125 5 Image Chart
1982 7 29 06 21.3 143.4 900 125 5 Image Chart
1982 7 29 12 22.1 142.3 905 120 5 Image Chart
1982 7 29 18 22.7 141.2 910 120 5 Image Chart
1982 7 30 00 23.3 140.2 915 120 5 Image Chart
1982 7 30 06 24.0 139.4 925 110 5 Image Chart
1982 7 30 12 24.7 138.7 935 100 5 Image Chart
1982 7 30 18 25.1 138.1 935 100 5 Image Chart
1982 7 31 00 25.4 137.9 940 100 5 Image Chart
1982 7 31 06 26.1 137.7 945 100 5 Image Chart
1982 7 31 12 27.0 137.3 950 90 5 Image Chart
1982 7 31 18 28.0 137.0 955 80 5 Image Chart
1982 8 1 00 29.5 136.9 960 70 5 Image Chart
1982 8 1 06 31.2 136.9 965 70 5 Image Chart
1982 8 1 12 33.1 136.9 970 60 4 Image Chart
1982 8 1 18 36.2 137.0 974 45 3 Image Chart
1982 8 2 00 38.2 136.6 985 40 3 Image Chart
1982 8 2 06 39.5 136.0 990 0 6 Image Chart
1982 8 2 12 40.5 136.0 992 0 6 Image Chart
1982 8 2 18 41.0 136.0 996 0 6 Image Chart
1982 8 3 00 42.0 137.0 1000 0 6 Image Chart
1982 8 3 06 42.0 138.0 1002 0 6 Image Chart
1982 8 3 12 42.0 139.0 1003 0 6 Image Chart
Japan Meteorological Agency Best Track Data | Correction Date : 1992-10-21
< Typhoon 198209 1982 Season Typhoon 198211 >

Help